sensor_id;sensor_type;location;lat;lon;timestamp;pressure;altitude;pressure_sealevel;temperature;humidity
49945;BME280;35838;49.134;9.212;2022-07-18T00:01:23;100571.75;;;20.59;42.42
49945;BME280;35838;49.134;9.212;2022-07-18T00:02:57;100578.84;;;20.57;42.72
49945;BME280;35838;49.134;9.212;2022-07-18T00:04:32;100571.22;;;20.49;42.93
49945;BME280;35838;49.134;9.212;2022-07-18T00:06:06;100573.06;;;20.47;43.03
49945;BME280;35838;49.134;9.212;2022-07-18T00:07:40;100566.16;;;20.43;43.45
49945;BME280;35838;49.134;9.212;2022-07-18T00:09:14;100570.59;;;20.41;43.43
49945;BME280;35838;49.134;9.212;2022-07-18T00:10:48;100569.09;;;20.33;43.70
49945;BME280;35838;49.134;9.212;2022-07-18T00:12:22;100566.38;;;20.37;43.67
49945;BME280;35838;49.134;9.212;2022-07-18T00:13:57;100566.59;;;20.30;43.75
49945;BME280;35838;49.134;9.212;2022-07-18T00:15:28;100566.91;;;20.21;44.00
49945;BME280;35838;49.134;9.212;2022-07-18T00:17:05;100568.72;;;20.19;44.14
49945;BME280;35838;49.134;9.212;2022-07-18T00:18:39;100568.06;;;20.12;44.39
49945;BME280;35838;49.134;9.212;2022-07-18T00:20:13;100561.81;;;20.15;44.15
49945;BME280;35838;49.134;9.212;2022-07-18T00:21:47;100561.81;;;20.15;44.05
49945;BME280;35838;49.134;9.212;2022-07-18T00:23:21;100563.75;;;20.10;44.24
49945;BME280;35838;49.134;9.212;2022-07-18T00:24:55;100569.88;;;20.10;43.89
49945;BME280;35838;49.134;9.212;2022-07-18T00:26:29;100563.91;;;20.05;43.91
49945;BME280;35838;49.134;9.212;2022-07-18T00:28:03;100562.13;;;20.06;44.22
49945;BME280;35838;49.134;9.212;2022-07-18T00:29:37;100558.03;;;19.97;44.12
49945;BME280;35838;49.134;9.212;2022-07-18T00:31:11;100553.00;;;19.89;44.62
49945;BME280;35838;49.134;9.212;2022-07-18T00:32:48;100561.63;;;19.94;44.97
49945;BME280;35838;49.134;9.212;2022-07-18T00:34:22;100559.00;;;19.94;44.75
49945;BME280;35838;49.134;9.212;2022-07-18T00:35:56;100565.09;;;19.96;44.85
49945;BME280;35838;49.134;9.212;2022-07-18T00:37:30;100563.22;;;20.00;45.09
49945;BME280;35838;49.134;9.212;2022-07-18T00:39:04;100561.50;;;19.97;45.63
49945;BME280;35838;49.134;9.212;2022-07-18T00:40:38;100558.09;;;19.95;45.52
49945;BME280;35838;49.134;9.212;2022-07-18T00:42:12;100559.91;;;19.93;45.30
49945;BME280;35838;49.134;9.212;2022-07-18T00:43:47;100557.47;;;19.87;45.83
49945;BME280;35838;49.134;9.212;2022-07-18T00:45:20;100555.75;;;19.86;46.31
49945;BME280;35838;49.134;9.212;2022-07-18T00:46:57;100554.38;;;19.72;46.56
49945;BME280;35838;49.134;9.212;2022-07-18T00:48:34;100556.31;;;19.67;46.66
49945;BME280;35838;49.134;9.212;2022-07-18T00:50:09;100558.41;;;19.56;46.81
49945;BME280;35838;49.134;9.212;2022-07-18T00:51:43;100564.97;;;19.42;46.39
49945;BME280;35838;49.134;9.212;2022-07-18T00:53:16;100568.59;;;19.38;46.68
49945;BME280;35838;49.134;9.212;2022-07-18T00:54:50;100566.28;;;19.28;47.90
49945;BME280;35838;49.134;9.212;2022-07-18T00:56:24;100569.88;;;19.25;47.99
49945;BME280;35838;49.134;9.212;2022-07-18T00:57:58;100569.75;;;19.28;47.92
49945;BME280;35838;49.134;9.212;2022-07-18T00:59:32;100574.88;;;19.34;48.34
49945;BME280;35838;49.134;9.212;2022-07-18T01:01:19;100574.13;;;19.29;47.96
49945;BME280;35838;49.134;9.212;2022-07-18T01:03:05;100576.06;;;19.22;47.39
49945;BME280;35838;49.134;9.212;2022-07-18T01:04:42;100575.28;;;19.19;47.28
49945;BME280;35838;49.134;9.212;2022-07-18T01:06:16;100572.94;;;19.09;47.15
49945;BME280;35838;49.134;9.212;2022-07-18T01:09:06;100584.66;;;18.98;47.11
49945;BME280;35838;49.134;9.212;2022-07-18T01:10:40;100584.00;;;18.89;48.58
49945;BME280;35838;49.134;9.212;2022-07-18T01:12:15;100579.69;;;18.87;49.41
49945;BME280;35838;49.134;9.212;2022-07-18T01:13:49;100585.91;;;18.83;50.19
49945;BME280;35838;49.134;9.212;2022-07-18T01:15:23;100584.16;;;18.83;50.27
49945;BME280;35838;49.134;9.212;2022-07-18T01:16:57;100585.16;;;18.79;50.79
49945;BME280;35838;49.134;9.212;2022-07-18T01:18:32;100584.22;;;18.82;50.57
49945;BME280;35838;49.134;9.212;2022-07-18T01:20:10;100589.56;;;18.78;50.73
49945;BME280;35838;49.134;9.212;2022-07-18T01:21:47;100588.66;;;18.79;50.83
49945;BME280;35838;49.134;9.212;2022-07-18T01:23:21;100591.28;;;18.79;50.95
49945;BME280;35838;49.134;9.212;2022-07-18T01:24:55;100584.34;;;18.77;50.78
49945;BME280;35838;49.134;9.212;2022-07-18T01:26:29;100582.63;;;18.74;50.72
49945;BME280;35838;49.134;9.212;2022-07-18T01:28:03;100579.09;;;18.77;50.44
49945;BME280;35838;49.134;9.212;2022-07-18T01:29:38;100577.34;;;18.76;49.67
49945;BME280;35838;49.134;9.212;2022-07-18T01:31:12;100578.38;;;18.70;48.63
49945;BME280;35838;49.134;9.212;2022-07-18T01:32:44;100577.69;;;18.63;47.67
49945;BME280;35838;49.134;9.212;2022-07-18T01:34:20;100578.47;;;18.67;47.27
49945;BME280;35838;49.134;9.212;2022-07-18T01:35:54;100581.06;;;18.69;47.45
49945;BME280;35838;49.134;9.212;2022-07-18T01:37:28;100582.56;;;18.77;47.31
49945;BME280;35838;49.134;9.212;2022-07-18T01:39:02;100578.13;;;18.79;47.44
49945;BME280;35838;49.134;9.212;2022-07-18T01:40:36;100578.91;;;18.83;47.72
49945;BME280;35838;49.134;9.212;2022-07-18T01:42:11;100574.44;;;18.87;48.14
49945;BME280;35838;49.134;9.212;2022-07-18T01:43:45;100577.88;;;18.89;48.22
49945;BME280;35838;49.134;9.212;2022-07-18T01:45:19;100584.94;;;18.87;48.21
49945;BME280;35838;49.134;9.212;2022-07-18T01:46:54;100586.84;;;18.82;48.42
49945;BME280;35838;49.134;9.212;2022-07-18T01:48:28;100590.38;;;18.81;48.46
49945;BME280;35838;49.134;9.212;2022-07-18T01:50:02;100593.22;;;18.73;48.59
49945;BME280;35838;49.134;9.212;2022-07-18T01:51:34;100581.75;;;18.75;48.80
49945;BME280;35838;49.134;9.212;2022-07-18T01:53:11;100587.09;;;18.72;48.67
49945;BME280;35838;49.134;9.212;2022-07-18T01:54:45;100585.63;;;18.62;48.89
49945;BME280;35838;49.134;9.212;2022-07-18T01:56:19;100582.94;;;18.63;48.64
49945;BME280;35838;49.134;9.212;2022-07-18T01:57:53;100587.41;;;18.60;49.13
49945;BME280;35838;49.134;9.212;2022-07-18T01:59:27;100586.56;;;18.59;49.11
49945;BME280;35838;49.134;9.212;2022-07-18T02:01:01;100584.78;;;18.60;49.03
49945;BME280;35838;49.134;9.212;2022-07-18T02:02:36;100589.38;;;18.52;49.48
49945;BME280;35838;49.134;9.212;2022-07-18T02:04:10;100589.31;;;18.55;49.56
49945;BME280;35838;49.134;9.212;2022-07-18T02:05:45;100591.97;;;18.53;49.62
49945;BME280;35838;49.134;9.212;2022-07-18T02:07:19;100593.66;;;18.56;49.77
49945;BME280;35838;49.134;9.212;2022-07-18T02:08:53;100597.88;;;18.63;49.63
49945;BME280;35838;49.134;9.212;2022-07-18T02:10:27;100595.97;;;18.68;49.53
49945;BME280;35838;49.134;9.212;2022-07-18T02:12:01;100590.78;;;18.65;49.47
49945;BME280;35838;49.134;9.212;2022-07-18T02:13:32;100589.97;;;18.63;49.91
49945;BME280;35838;49.134;9.212;2022-07-18T02:15:09;100581.31;;;18.59;50.23
49945;BME280;35838;49.134;9.212;2022-07-18T02:16:43;100586.69;;;18.55;50.27
49945;BME280;35838;49.134;9.212;2022-07-18T02:18:17;100593.78;;;18.51;50.89
49945;BME280;35838;49.134;9.212;2022-07-18T02:19:51;100584.97;;;18.52;51.20
49945;BME280;35838;49.134;9.212;2022-07-18T02:21:22;100586.75;;;18.52;51.30
49945;BME280;35838;49.134;9.212;2022-07-18T02:22:56;100585.22;;;18.43;51.56
49945;BME280;35838;49.134;9.212;2022-07-18T02:24:33;100589.63;;;18.42;51.42
49945;BME280;35838;49.134;9.212;2022-07-18T02:26:07;100585.16;;;18.46;51.28
49945;BME280;35838;49.134;9.212;2022-07-18T02:27:41;100584.56;;;18.35;51.73
49945;BME280;35838;49.134;9.212;2022-07-18T02:29:15;100592.44;;;18.35;51.95
49945;BME280;35838;49.134;9.212;2022-07-18T02:30:47;100589.25;;;18.23;52.31
49945;BME280;35838;49.134;9.212;2022-07-18T02:32:21;100581.47;;;18.19;52.94
49945;BME280;35838;49.134;9.212;2022-07-18T02:33:55;100585.72;;;18.23;52.92
49945;BME280;35838;49.134;9.212;2022-07-18T02:35:27;100590.16;;;18.21;52.82
49945;BME280;35838;49.134;9.212;2022-07-18T02:37:01;100594.78;;;18.11;53.19
49945;BME280;35838;49.134;9.212;2022-07-18T02:38:35;100590.63;;;18.02;53.34
49945;BME280;35838;49.134;9.212;2022-07-18T02:40:12;100593.31;;;17.99;53.94
49945;BME280;35838;49.134;9.212;2022-07-18T02:41:46;100588.91;;;17.99;53.34
49945;BME280;35838;49.134;9.212;2022-07-18T02:43:18;100584.50;;;18.01;53.57
49945;BME280;35838;49.134;9.212;2022-07-18T02:44:52;100590.69;;;17.99;53.29
49945;BME280;35838;49.134;9.212;2022-07-18T02:46:26;100585.63;;;17.90;53.07
49945;BME280;35838;49.134;9.212;2022-07-18T02:47:57;100595.41;;;17.83;53.35
49945;BME280;35838;49.134;9.212;2022-07-18T02:49:31;100593.38;;;17.97;53.10
49945;BME280;35838;49.134;9.212;2022-07-18T02:51:03;100590.59;;;18.04;52.89
49945;BME280;35838;49.134;9.212;2022-07-18T02:52:38;100588.97;;;17.98;52.96
49945;BME280;35838;49.134;9.212;2022-07-18T02:54:13;100587.41;;;17.88;53.55
49945;BME280;35838;49.134;9.212;2022-07-18T02:55:50;100593.88;;;17.74;53.40
49945;BME280;35838;49.134;9.212;2022-07-18T02:57:24;100592.28;;;17.67;53.24
49945;BME280;35838;49.134;9.212;2022-07-18T02:58:58;100593.06;;;17.70;53.09
49945;BME280;35838;49.134;9.212;2022-07-18T03:00:32;100594.09;;;17.63;52.76
49945;BME280;35838;49.134;9.212;2022-07-18T03:02:06;100593.28;;;17.60;53.04
49945;BME280;35838;49.134;9.212;2022-07-18T03:03:37;100603.00;;;17.56;53.01
49945;BME280;35838;49.134;9.212;2022-07-18T03:05:12;100600.66;;;17.42;53.37
49945;BME280;35838;49.134;9.212;2022-07-18T03:06:46;100599.72;;;17.46;53.08
49945;BME280;35838;49.134;9.212;2022-07-18T03:08:21;100604.13;;;17.44;53.09
49945;BME280;35838;49.134;9.212;2022-07-18T03:09:52;100605.22;;;17.35;53.30
49945;BME280;35838;49.134;9.212;2022-07-18T03:11:29;100600.06;;;17.29;52.88
49945;BME280;35838;49.134;9.212;2022-07-18T03:13:03;100596.59;;;17.29;52.41
49945;BME280;35838;49.134;9.212;2022-07-18T03:14:37;100600.16;;;17.25;52.07
49945;BME280;35838;49.134;9.212;2022-07-18T03:16:11;100594.97;;;17.23;52.18
49945;BME280;35838;49.134;9.212;2022-07-18T03:17:45;100595.00;;;17.20;52.38
49945;BME280;35838;49.134;9.212;2022-07-18T03:19:19;100597.69;;;17.18;52.19
49945;BME280;35838;49.134;9.212;2022-07-18T03:20:53;100601.28;;;17.14;52.45
49945;BME280;35838;49.134;9.212;2022-07-18T03:22:27;100597.81;;;17.12;51.93
49945;BME280;35838;49.134;9.212;2022-07-18T03:24:01;100593.38;;;17.16;51.50
49945;BME280;35838;49.134;9.212;2022-07-18T03:25:35;100596.00;;;17.16;51.61
49945;BME280;35838;49.134;9.212;2022-07-18T03:27:11;100592.56;;;17.12;51.64
49945;BME280;35838;49.134;9.212;2022-07-18T03:28:45;100583.75;;;17.15;51.83
49945;BME280;35838;49.134;9.212;2022-07-18T03:30:17;100591.75;;;17.09;52.04
49945;BME280;35838;49.134;9.212;2022-07-18T03:31:51;100592.56;;;17.12;51.85
49945;BME280;35838;49.134;9.212;2022-07-18T03:33:25;100599.56;;;17.12;51.64
49945;BME280;35838;49.134;9.212;2022-07-18T03:35:00;100595.09;;;17.17;51.63
49945;BME280;35838;49.134;9.212;2022-07-18T03:36:34;100596.84;;;17.16;51.75
49945;BME280;35838;49.134;9.212;2022-07-18T03:38:08;100595.38;;;17.01;51.99
49945;BME280;35838;49.134;9.212;2022-07-18T03:39:42;100593.88;;;16.88;51.87
49945;BME280;35838;49.134;9.212;2022-07-18T03:41:16;100596.56;;;16.83;51.87
49945;BME280;35838;49.134;9.212;2022-07-18T03:42:50;100593.06;;;16.84;52.01
49945;BME280;35838;49.134;9.212;2022-07-18T03:44:24;100595.75;;;16.81;51.57
49945;BME280;35838;49.134;9.212;2022-07-18T03:45:58;100591.47;;;16.77;51.30
49945;BME280;35838;49.134;9.212;2022-07-18T03:47:31;100593.25;;;16.75;51.14
49945;BME280;35838;49.134;9.212;2022-07-18T03:49:05;100592.25;;;16.81;51.32
49945;BME280;35838;49.134;9.212;2022-07-18T03:50:39;100594.88;;;16.81;51.91
49945;BME280;35838;49.134;9.212;2022-07-18T03:52:13;100592.13;;;16.87;52.21
49945;BME280;35838;49.134;9.212;2022-07-18T03:53:48;100592.19;;;16.85;52.75
49945;BME280;35838;49.134;9.212;2022-07-18T03:55:22;100592.09;;;16.88;53.18
49945;BME280;35838;49.134;9.212;2022-07-18T03:56:53;100589.44;;;16.91;53.64
49945;BME280;35838;49.134;9.212;2022-07-18T03:58:30;100588.47;;;16.97;53.52
49945;BME280;35838;49.134;9.212;2022-07-18T04:00:05;100591.94;;;16.99;53.49
49945;BME280;35838;49.134;9.212;2022-07-18T04:01:39;100587.56;;;17.00;54.24
49945;BME280;35838;49.134;9.212;2022-07-18T04:03:13;100590.88;;;17.08;54.27
49945;BME280;35838;49.134;9.212;2022-07-18T04:04:47;100591.88;;;17.02;54.75
49945;BME280;35838;49.134;9.212;2022-07-18T04:06:21;100586.75;;;16.96;55.50
49945;BME280;35838;49.134;9.212;2022-07-18T04:07:55;100590.25;;;16.97;55.49
49945;BME280;35838;49.134;9.212;2022-07-18T04:09:26;100585.91;;;16.94;55.46
49945;BME280;35838;49.134;9.212;2022-07-18T04:11:00;100593.91;;;16.85;55.61
49945;BME280;35838;49.134;9.212;2022-07-18T04:12:35;100590.31;;;16.94;55.43
49945;BME280;35838;49.134;9.212;2022-07-18T04:14:17;100585.06;;;16.92;55.03
49945;BME280;35838;49.134;9.212;2022-07-18T04:15:53;100593.44;;;16.64;55.88
49945;BME280;35838;49.134;9.212;2022-07-18T04:17:24;100587.25;;;16.68;56.32
49945;BME280;35838;49.134;9.212;2022-07-18T04:18:58;100590.09;;;16.54;56.69
49945;BME280;35838;49.134;9.212;2022-07-18T04:20:33;100595.06;;;16.71;56.47
49945;BME280;35838;49.134;9.212;2022-07-18T04:22:07;100591.78;;;16.58;56.38
49945;BME280;35838;49.134;9.212;2022-07-18T04:23:39;100595.25;;;16.60;56.33
49945;BME280;35838;49.134;9.212;2022-07-18T04:25:13;100590.66;;;16.73;56.21
49945;BME280;35838;49.134;9.212;2022-07-18T04:26:47;100601.69;;;16.89;55.48
49945;BME280;35838;49.134;9.212;2022-07-18T04:28:21;100597.19;;;16.98;55.16
49945;BME280;35838;49.134;9.212;2022-07-18T04:29:55;100598.03;;;17.00;54.90
49945;BME280;35838;49.134;9.212;2022-07-18T04:31:29;100597.25;;;16.96;54.59
49945;BME280;35838;49.134;9.212;2022-07-18T04:33:05;100600.84;;;16.89;54.50
49945;BME280;35838;49.134;9.212;2022-07-18T04:34:39;100607.06;;;16.83;54.16
49945;BME280;35838;49.134;9.212;2022-07-18T04:36:13;100603.59;;;16.81;53.41
49945;BME280;35838;49.134;9.212;2022-07-18T04:37:49;100607.09;;;16.80;53.94
49945;BME280;35838;49.134;9.212;2022-07-18T04:39:21;100613.31;;;16.76;54.14
49945;BME280;35838;49.134;9.212;2022-07-18T04:40:55;100605.50;;;16.74;54.43
49945;BME280;35838;49.134;9.212;2022-07-18T04:42:29;100609.81;;;16.77;54.59
49945;BME280;35838;49.134;9.212;2022-07-18T04:44:01;100601.94;;;16.77;55.09
49945;BME280;35838;49.134;9.212;2022-07-18T04:45:38;100603.75;;;16.73;54.93
49945;BME280;35838;49.134;9.212;2022-07-18T04:47:12;100600.34;;;16.68;55.00
49945;BME280;35838;49.134;9.212;2022-07-18T04:48:46;100598.53;;;16.72;54.88
49945;BME280;35838;49.134;9.212;2022-07-18T04:50:20;100605.50;;;16.73;54.75
49945;BME280;35838;49.134;9.212;2022-07-18T04:51:54;100604.69;;;16.69;53.33
49945;BME280;35838;49.134;9.212;2022-07-18T04:53:28;100597.69;;;16.71;53.50
49945;BME280;35838;49.134;9.212;2022-07-18T04:55:02;100599.44;;;16.69;53.49
49945;BME280;35838;49.134;9.212;2022-07-18T04:56:36;100599.28;;;16.79;53.36
49945;BME280;35838;49.134;9.212;2022-07-18T04:58:10;100601.81;;;16.83;53.19
49945;BME280;35838;49.134;9.212;2022-07-18T04:59:45;100601.69;;;16.89;52.89
49945;BME280;35838;49.134;9.212;2022-07-18T05:01:22;100600.78;;;16.94;52.88
49945;BME280;35838;49.134;9.212;2022-07-18T05:02:56;100594.66;;;16.93;52.64
49945;BME280;35838;49.134;9.212;2022-07-18T05:04:30;100596.22;;;17.05;52.16
49945;BME280;35838;49.134;9.212;2022-07-18T05:06:02;100603.09;;;17.09;51.71
49945;BME280;35838;49.134;9.212;2022-07-18T05:07:36;100598.75;;;17.08;51.54
49945;BME280;35838;49.134;9.212;2022-07-18T05:09:10;100598.69;;;17.11;51.77
49945;BME280;35838;49.134;9.212;2022-07-18T05:10:44;100603.06;;;17.12;51.90
49945;BME280;35838;49.134;9.212;2022-07-18T05:12:18;100602.06;;;17.16;52.22
49945;BME280;35838;49.134;9.212;2022-07-18T05:13:54;100591.50;;;17.21;52.07
49945;BME280;35838;49.134;9.212;2022-07-18T05:15:28;100598.94;;;16.99;51.87
49945;BME280;35838;49.134;9.212;2022-07-18T05:17:04;100605.88;;;17.01;52.12
49945;BME280;35838;49.134;9.212;2022-07-18T05:18:38;100598.94;;;16.99;52.06
49945;BME280;35838;49.134;9.212;2022-07-18T05:20:15;100609.16;;;17.13;51.24
49945;BME280;35838;49.134;9.212;2022-07-18T05:21:50;100606.31;;;17.23;51.33
49945;BME280;35838;49.134;9.212;2022-07-18T05:23:24;100604.47;;;17.29;51.08
49945;BME280;35838;49.134;9.212;2022-07-18T05:24:58;100609.44;;;17.41;50.34
49945;BME280;35838;49.134;9.212;2022-07-18T05:26:32;100604.91;;;17.49;50.18
49945;BME280;35838;49.134;9.212;2022-07-18T05:28:06;100612.69;;;17.52;50.05
49945;BME280;35838;49.134;9.212;2022-07-18T05:29:40;100605.81;;;17.48;50.28
49945;BME280;35838;49.134;9.212;2022-07-18T05:31:14;100607.34;;;17.57;50.04
49945;BME280;35838;49.134;9.212;2022-07-18T05:32:51;100609.94;;;17.59;50.31
49945;BME280;35838;49.134;9.212;2022-07-18T05:34:25;100610.66;;;17.65;50.04
49945;BME280;35838;49.134;9.212;2022-07-18T05:35:59;100609.72;;;17.68;49.78
49945;BME280;35838;49.134;9.212;2022-07-18T05:37:34;100607.06;;;17.71;49.73
49945;BME280;35838;49.134;9.212;2022-07-18T05:39:06;100607.78;;;17.78;50.01
49945;BME280;35838;49.134;9.212;2022-07-18T05:40:40;100611.94;;;17.86;49.84
49945;BME280;35838;49.134;9.212;2022-07-18T05:42:14;100609.91;;;18.01;49.36
49945;BME280;35838;49.134;9.212;2022-07-18T05:43:48;100607.88;;;18.12;49.67
49945;BME280;35838;49.134;9.212;2022-07-18T05:45:22;100611.34;;;18.14;49.34
49945;BME280;35838;49.134;9.212;2022-07-18T05:46:56;100601.66;;;18.16;49.33
49945;BME280;35838;49.134;9.212;2022-07-18T05:48:33;100602.38;;;18.23;48.91
49945;BME280;35838;49.134;9.212;2022-07-18T05:50:08;100611.16;;;18.21;49.48
49945;BME280;35838;49.134;9.212;2022-07-18T05:51:42;100608.63;;;18.17;49.42
49945;BME280;35838;49.134;9.212;2022-07-18T05:53:14;100606.00;;;18.17;49.39
49945;BME280;35838;49.134;9.212;2022-07-18T05:54:48;100610.38;;;18.19;49.51
49945;BME280;35838;49.134;9.212;2022-07-18T05:56:22;100610.22;;;18.25;49.68
49945;BME280;35838;49.134;9.212;2022-07-18T05:57:56;100616.06;;;18.36;49.85
49945;BME280;35838;49.134;9.212;2022-07-18T05:59:30;100603.50;;;18.47;49.45
49945;BME280;35838;49.134;9.212;2022-07-18T06:01:04;100597.28;;;18.52;49.01
49945;BME280;35838;49.134;9.212;2022-07-18T06:02:38;100603.44;;;18.51;49.16
49945;BME280;35838;49.134;9.212;2022-07-18T06:04:15;100606.00;;;18.52;49.65
49945;BME280;35838;49.134;9.212;2022-07-18T06:05:49;100604.91;;;18.61;49.31
49945;BME280;35838;49.134;9.212;2022-07-18T06:07:23;100599.72;;;18.58;49.41
49945;BME280;35838;49.134;9.212;2022-07-18T06:08:57;100602.09;;;18.69;49.21
49945;BME280;35838;49.134;9.212;2022-07-18T06:10:31;100600.16;;;18.75;49.02
49945;BME280;35838;49.134;9.212;2022-07-18T06:12:06;100604.44;;;18.79;48.43
49945;BME280;35838;49.134;9.212;2022-07-18T06:13:41;100602.63;;;18.82;48.56
49945;BME280;35838;49.134;9.212;2022-07-18T06:15:15;100605.13;;;18.86;48.35
49945;BME280;35838;49.134;9.212;2022-07-18T06:16:49;100611.94;;;18.95;48.39
49945;BME280;35838;49.134;9.212;2022-07-18T06:18:23;100609.22;;;18.98;48.56
49945;BME280;35838;49.134;9.212;2022-07-18T06:20:00;100608.44;;;18.94;48.33
49945;BME280;35838;49.134;9.212;2022-07-18T06:21:31;100605.75;;;18.96;48.02
49945;BME280;35838;49.134;9.212;2022-07-18T06:23:05;100599.41;;;19.03;48.44
49945;BME280;35838;49.134;9.212;2022-07-18T06:24:39;100599.34;;;19.06;47.48
49945;BME280;35838;49.134;9.212;2022-07-18T06:26:11;100603.59;;;19.10;48.86
49945;BME280;35838;49.134;9.212;2022-07-18T06:27:45;100601.06;;;19.07;49.33
49945;BME280;35838;49.134;9.212;2022-07-18T06:29:19;100598.97;;;19.19;49.27
49945;BME280;35838;49.134;9.212;2022-07-18T06:30:51;100598.13;;;19.18;49.33
49945;BME280;35838;49.134;9.212;2022-07-18T06:32:25;100589.19;;;19.24;48.84
49945;BME280;35838;49.134;9.212;2022-07-18T06:33:59;100588.16;;;19.30;48.71
49945;BME280;35838;49.134;9.212;2022-07-18T06:35:35;100594.06;;;19.38;48.60
49945;BME280;35838;49.134;9.212;2022-07-18T06:37:10;100598.50;;;19.36;47.63
49945;BME280;35838;49.134;9.212;2022-07-18T06:38:44;100596.06;;;19.30;46.06
49945;BME280;35838;49.134;9.212;2022-07-18T06:40:19;100592.34;;;19.35;46.53
49945;BME280;35838;49.134;9.212;2022-07-18T06:41:56;100595.66;;;19.44;46.27
49945;BME280;35838;49.134;9.212;2022-07-18T06:43:30;100588.38;;;19.52;46.91
49945;BME280;35838;49.134;9.212;2022-07-18T06:45:05;100586.53;;;19.54;47.67
49945;BME280;35838;49.134;9.212;2022-07-18T06:46:39;100579.47;;;19.56;47.68
49945;BME280;35838;49.134;9.212;2022-07-18T06:48:14;100582.78;;;19.63;47.44
49945;BME280;35838;49.134;9.212;2022-07-18T06:49:48;100573.72;;;19.71;46.72
49945;BME280;35838;49.134;9.212;2022-07-18T06:51:24;100574.38;;;19.78;46.02
49945;BME280;35838;49.134;9.212;2022-07-18T06:52:58;100574.94;;;19.90;45.82
49945;BME280;35838;49.134;9.212;2022-07-18T06:54:32;100572.03;;;19.97;46.57
49945;BME280;35838;49.134;9.212;2022-07-18T06:56:08;100574.81;;;19.93;45.56
49945;BME280;35838;49.134;9.212;2022-07-18T06:57:43;100572.19;;;19.93;45.38
49945;BME280;35838;49.134;9.212;2022-07-18T06:59:17;100572.78;;;20.02;45.36
49945;BME280;35838;49.134;9.212;2022-07-18T07:00:48;100569.16;;;20.05;45.70
49945;BME280;35838;49.134;9.212;2022-07-18T07:02:22;100572.56;;;20.09;44.84
49945;BME280;35838;49.134;9.212;2022-07-18T07:03:56;100570.53;;;20.17;44.13
49945;BME280;35838;49.134;9.212;2022-07-18T07:05:30;100573.16;;;20.17;44.49
49945;BME280;35838;49.134;9.212;2022-07-18T07:07:07;100572.34;;;20.15;43.31
49945;BME280;35838;49.134;9.212;2022-07-18T07:08:41;100574.97;;;20.16;43.42
49945;BME280;35838;49.134;9.212;2022-07-18T07:10:15;100577.22;;;20.27;43.33
49945;BME280;35838;49.134;9.212;2022-07-18T07:11:50;100579.03;;;20.25;43.53
49945;BME280;35838;49.134;9.212;2022-07-18T07:13:24;100585.94;;;20.29;42.79
49945;BME280;35838;49.134;9.212;2022-07-18T07:14:58;100576.91;;;20.37;42.85
49945;BME280;35838;49.134;9.212;2022-07-18T07:16:32;100580.22;;;20.43;42.48
49945;BME280;35838;49.134;9.212;2022-07-18T07:18:06;100583.69;;;20.44;43.24
49945;BME280;35838;49.134;9.212;2022-07-18T07:19:40;100586.41;;;20.41;42.87
49945;BME280;35838;49.134;9.212;2022-07-18T07:21:14;100586.16;;;20.48;42.63
49945;BME280;35838;49.134;9.212;2022-07-18T07:22:53;100581.34;;;20.61;42.83
49945;BME280;35838;49.134;9.212;2022-07-18T07:24:27;100574.78;;;20.73;42.57
49945;BME280;35838;49.134;9.212;2022-07-18T07:26:01;100570.22;;;20.78;41.63
49945;BME280;35838;49.134;9.212;2022-07-18T07:27:35;100579.69;;;20.84;41.60
49945;BME280;35838;49.134;9.212;2022-07-18T07:29:09;100568.09;;;20.88;40.75
49945;BME280;35838;49.134;9.212;2022-07-18T07:30:43;100574.88;;;20.95;40.58
49945;BME280;35838;49.134;9.212;2022-07-18T07:32:17;100570.34;;;20.99;40.67
49945;BME280;35838;49.134;9.212;2022-07-18T07:33:51;100564.72;;;21.08;40.32
49945;BME280;35838;49.134;9.212;2022-07-18T07:35:26;100566.34;;;21.12;39.95
49945;BME280;35838;49.134;9.212;2022-07-18T07:36:59;100565.28;;;21.17;40.43
49945;BME280;35838;49.134;9.212;2022-07-18T07:38:36;100569.56;;;21.21;40.25
49945;BME280;35838;49.134;9.212;2022-07-18T07:40:10;100572.03;;;21.25;39.46
49945;BME280;35838;49.134;9.212;2022-07-18T07:41:44;100570.84;;;21.33;39.42
49945;BME280;35838;49.134;9.212;2022-07-18T07:43:18;100569.84;;;21.37;39.94
49945;BME280;35838;49.134;9.212;2022-07-18T07:44:52;100563.56;;;21.39;39.52
49945;BME280;35838;49.134;9.212;2022-07-18T07:46:26;100577.44;;;21.44;39.00
49945;BME280;35838;49.134;9.212;2022-07-18T07:48:01;100570.31;;;21.47;38.97
49945;BME280;35838;49.134;9.212;2022-07-18T07:49:35;100569.09;;;21.55;39.18
49945;BME280;35838;49.134;9.212;2022-07-18T07:51:09;100567.06;;;21.64;38.29
49945;BME280;35838;49.134;9.212;2022-07-18T07:52:43;100565.47;;;21.59;37.72
49945;BME280;35838;49.134;9.212;2022-07-18T07:54:20;100561.53;;;21.70;38.25
49945;BME280;35838;49.134;9.212;2022-07-18T07:55:54;100563.13;;;21.74;38.70
49945;BME280;35838;49.134;9.212;2022-07-18T07:57:28;100565.63;;;21.77;37.98
49945;BME280;35838;49.134;9.212;2022-07-18T07:58:59;100558.34;;;21.84;37.79
49945;BME280;35838;49.134;9.212;2022-07-18T08:00:34;100560.72;;;21.90;37.09
49945;BME280;35838;49.134;9.212;2022-07-18T08:02:08;100560.25;;;22.01;37.69
49945;BME280;35838;49.134;9.212;2022-07-18T08:03:42;100556.50;;;22.06;37.18
49945;BME280;35838;49.134;9.212;2022-07-18T08:05:17;100559.66;;;22.16;36.92
49945;BME280;35838;49.134;9.212;2022-07-18T08:06:51;100548.81;;;22.22;37.02
49945;BME280;35838;49.134;9.212;2022-07-18T08:08:25;100550.53;;;22.23;35.79
49945;BME280;35838;49.134;9.212;2022-07-18T08:10:02;100549.53;;;22.26;34.80
49945;BME280;35838;49.134;9.212;2022-07-18T08:11:36;100547.41;;;22.34;34.63
49945;BME280;35838;49.134;9.212;2022-07-18T08:13:11;100547.91;;;22.44;35.09
49945;BME280;35838;49.134;9.212;2022-07-18T08:14:45;100535.19;;;22.52;35.21